sensor_id;sensor_type;location;lat;lon;timestamp;P1;durP1;ratioP1;P2;durP2;ratioP2
4452;SDS011;2239;48.152;11.584;2023-08-06T00:02:13;3.50;;;1.77;;
4452;SDS011;2239;48.152;11.584;2023-08-06T00:04:39;4.90;;;2.10;;
4452;SDS011;2239;48.152;11.584;2023-08-06T00:07:04;5.20;;;2.30;;
4452;SDS011;2239;48.152;11.584;2023-08-06T00:09:30;4.50;;;2.30;;
4452;SDS011;2239;48.152;11.584;2023-08-06T00:11:55;3.10;;;1.80;;
4452;SDS011;2239;48.152;11.584;2023-08-06T00:14:21;4.80;;;2.13;;
4452;SDS011;2239;48.152;11.584;2023-08-06T00:16:47;2.73;;;2.03;;
4452;SDS011;2239;48.152;11.584;2023-08-06T00:19:12;4.70;;;2.17;;
4452;SDS011;2239;48.152;11.584;2023-08-06T00:21:38;2.93;;;1.50;;
4452;SDS011;2239;48.152;11.584;2023-08-06T00:24:04;5.30;;;2.43;;
4452;SDS011;2239;48.152;11.584;2023-08-06T00:26:29;3.40;;;2.00;;
4452;SDS011;2239;48.152;11.584;2023-08-06T00:28:55;2.83;;;1.70;;
4452;SDS011;2239;48.152;11.584;2023-08-06T00:31:20;4.83;;;2.13;;
4452;SDS011;2239;48.152;11.584;2023-08-06T00:33:46;2.33;;;1.60;;
4452;SDS011;2239;48.152;11.584;2023-08-06T00:36:11;3.47;;;1.70;;
4452;SDS011;2239;48.152;11.584;2023-08-06T00:38:37;2.87;;;1.63;;
4452;SDS011;2239;48.152;11.584;2023-08-06T00:41:02;2.53;;;1.87;;
4452;SDS011;2239;48.152;11.584;2023-08-06T00:43:28;3.07;;;1.90;;
4452;SDS011;2239;48.152;11.584;2023-08-06T00:45:53;4.13;;;1.70;;
4452;SDS011;2239;48.152;11.584;2023-08-06T00:48:19;3.13;;;1.53;;
4452;SDS011;2239;48.152;11.584;2023-08-06T00:50:46;3.57;;;2.00;;
4452;SDS011;2239;48.152;11.584;2023-08-06T00:53:11;3.40;;;1.43;;
4452;SDS011;2239;48.152;11.584;2023-08-06T00:55:37;5.30;;;1.57;;
4452;SDS011;2239;48.152;11.584;2023-08-06T00:58:03;4.07;;;2.10;;
4452;SDS011;2239;48.152;11.584;2023-08-06T01:00:29;3.10;;;1.60;;
4452;SDS011;2239;48.152;11.584;2023-08-06T01:02:55;5.30;;;2.03;;
4452;SDS011;2239;48.152;11.584;2023-08-06T01:05:22;2.33;;;1.60;;
4452;SDS011;2239;48.152;11.584;2023-08-06T01:10:51;4.50;;;1.83;;
4452;SDS011;2239;48.152;11.584;2023-08-06T01:13:31;4.37;;;1.93;;
4452;SDS011;2239;48.152;11.584;2023-08-06T01:16:06;2.03;;;1.53;;
4452;SDS011;2239;48.152;11.584;2023-08-06T01:18:32;3.63;;;1.93;;
4452;SDS011;2239;48.152;11.584;2023-08-06T01:20:58;1.90;;;1.27;;
4452;SDS011;2239;48.152;11.584;2023-08-06T01:23:23;4.60;;;1.93;;
4452;SDS011;2239;48.152;11.584;2023-08-06T01:25:58;2.60;;;1.70;;
4452;SDS011;2239;48.152;11.584;2023-08-06T01:31:10;3.23;;;2.10;;
4452;SDS011;2239;48.152;11.584;2023-08-06T01:33:43;1.57;;;1.43;;
4452;SDS011;2239;48.152;11.584;2023-08-06T01:36:15;3.60;;;1.77;;
4452;SDS011;2239;48.152;11.584;2023-08-06T01:38:41;1.90;;;1.50;;
4452;SDS011;2239;48.152;11.584;2023-08-06T01:41:07;4.37;;;2.10;;
4452;SDS011;2239;48.152;11.584;2023-08-06T01:43:33;3.67;;;2.07;;
4452;SDS011;2239;48.152;11.584;2023-08-06T01:45:58;4.10;;;1.70;;
4452;SDS011;2239;48.152;11.584;2023-08-06T01:48:24;4.00;;;2.10;;
4452;SDS011;2239;48.152;11.584;2023-08-06T01:50:49;3.73;;;1.50;;
4452;SDS011;2239;48.152;11.584;2023-08-06T01:53:15;3.30;;;1.67;;
4452;SDS011;2239;48.152;11.584;2023-08-06T01:55:41;3.80;;;1.97;;
4452;SDS011;2239;48.152;11.584;2023-08-06T01:58:06;3.40;;;1.70;;
4452;SDS011;2239;48.152;11.584;2023-08-06T02:00:32;2.80;;;1.50;;
4452;SDS011;2239;48.152;11.584;2023-08-06T02:02:57;3.03;;;1.87;;
4452;SDS011;2239;48.152;11.584;2023-08-06T02:05:23;3.70;;;1.53;;
4452;SDS011;2239;48.152;11.584;2023-08-06T02:07:48;3.57;;;2.10;;
4452;SDS011;2239;48.152;11.584;2023-08-06T02:10:14;2.60;;;2.13;;
4452;SDS011;2239;48.152;11.584;2023-08-06T02:12:40;2.70;;;1.73;;
4452;SDS011;2239;48.152;11.584;2023-08-06T02:15:06;4.30;;;2.00;;
4452;SDS011;2239;48.152;11.584;2023-08-06T02:17:32;2.70;;;1.90;;
4452;SDS011;2239;48.152;11.584;2023-08-06T02:19:57;3.17;;;1.70;;
4452;SDS011;2239;48.152;11.584;2023-08-06T02:22:23;2.63;;;1.70;;
4452;SDS011;2239;48.152;11.584;2023-08-06T02:24:49;2.30;;;1.50;;
4452;SDS011;2239;48.152;11.584;2023-08-06T02:27:14;2.03;;;1.40;;
4452;SDS011;2239;48.152;11.584;2023-08-06T02:29:40;3.23;;;1.70;;
4452;SDS011;2239;48.152;11.584;2023-08-06T02:32:06;2.10;;;1.23;;
4452;SDS011;2239;48.152;11.584;2023-08-06T02:34:32;2.70;;;1.60;;
4452;SDS011;2239;48.152;11.584;2023-08-06T02:36:58;3.43;;;1.37;;
4452;SDS011;2239;48.152;11.584;2023-08-06T02:39:23;4.07;;;2.10;;
4452;SDS011;2239;48.152;11.584;2023-08-06T02:41:49;2.63;;;1.23;;
4452;SDS011;2239;48.152;11.584;2023-08-06T02:44:14;1.77;;;1.40;;
4452;SDS011;2239;48.152;11.584;2023-08-06T02:46:40;2.00;;;1.70;;
4452;SDS011;2239;48.152;11.584;2023-08-06T02:49:06;2.13;;;1.60;;
4452;SDS011;2239;48.152;11.584;2023-08-06T02:51:31;2.10;;;1.33;;
4452;SDS011;2239;48.152;11.584;2023-08-06T02:53:57;1.97;;;1.50;;
4452;SDS011;2239;48.152;11.584;2023-08-06T02:56:22;2.20;;;1.53;;
4452;SDS011;2239;48.152;11.584;2023-08-06T02:58:48;2.37;;;1.50;;
4452;SDS011;2239;48.152;11.584;2023-08-06T03:01:14;2.90;;;1.50;;
4452;SDS011;2239;48.152;11.584;2023-08-06T03:03:39;2.70;;;1.70;;
4452;SDS011;2239;48.152;11.584;2023-08-06T03:06:05;2.40;;;1.70;;
4452;SDS011;2239;48.152;11.584;2023-08-06T03:08:30;3.57;;;1.43;;
4452;SDS011;2239;48.152;11.584;2023-08-06T03:10:56;3.83;;;1.53;;
4452;SDS011;2239;48.152;11.584;2023-08-06T03:13:21;2.10;;;1.60;;
4452;SDS011;2239;48.152;11.584;2023-08-06T03:15:54;4.50;;;1.77;;
4452;SDS011;2239;48.152;11.584;2023-08-06T03:18:20;2.30;;;1.30;;
4452;SDS011;2239;48.152;11.584;2023-08-06T03:20:46;5.00;;;1.80;;
4452;SDS011;2239;48.152;11.584;2023-08-06T03:23:12;4.20;;;1.70;;
4452;SDS011;2239;48.152;11.584;2023-08-06T03:25:37;2.00;;;1.20;;
4452;SDS011;2239;48.152;11.584;2023-08-06T03:28:03;2.73;;;1.40;;
4452;SDS011;2239;48.152;11.584;2023-08-06T03:30:29;1.43;;;1.20;;
4452;SDS011;2239;48.152;11.584;2023-08-06T03:32:54;1.60;;;1.43;;
4452;SDS011;2239;48.152;11.584;2023-08-06T03:35:20;1.20;;;1.00;;
4452;SDS011;2239;48.152;11.584;2023-08-06T03:37:45;1.50;;;1.13;;
4452;SDS011;2239;48.152;11.584;2023-08-06T03:40:11;4.50;;;1.97;;
4452;SDS011;2239;48.152;11.584;2023-08-06T03:42:36;3.40;;;1.60;;
4452;SDS011;2239;48.152;11.584;2023-08-06T03:45:02;2.03;;;1.10;;
4452;SDS011;2239;48.152;11.584;2023-08-06T03:47:28;1.37;;;1.10;;
4452;SDS011;2239;48.152;11.584;2023-08-06T03:49:53;3.97;;;1.50;;
4452;SDS011;2239;48.152;11.584;2023-08-06T03:52:19;1.30;;;1.20;;
4452;SDS011;2239;48.152;11.584;2023-08-06T03:54:44;2.20;;;1.27;;
4452;SDS011;2239;48.152;11.584;2023-08-06T03:57:10;2.27;;;1.50;;
4452;SDS011;2239;48.152;11.584;2023-08-06T03:59:35;2.27;;;1.47;;
4452;SDS011;2239;48.152;11.584;2023-08-06T04:02:01;1.63;;;1.27;;
4452;SDS011;2239;48.152;11.584;2023-08-06T04:04:27;2.10;;;1.00;;
4452;SDS011;2239;48.152;11.584;2023-08-06T04:06:52;1.53;;;1.33;;
4452;SDS011;2239;48.152;11.584;2023-08-06T04:09:18;1.63;;;1.10;;
4452;SDS011;2239;48.152;11.584;2023-08-06T04:11:44;1.97;;;1.20;;
4452;SDS011;2239;48.152;11.584;2023-08-06T04:14:09;1.57;;;1.17;;
4452;SDS011;2239;48.152;11.584;2023-08-06T04:16:35;1.67;;;1.10;;
4452;SDS011;2239;48.152;11.584;2023-08-06T04:19:00;1.63;;;1.20;;
4452;SDS011;2239;48.152;11.584;2023-08-06T04:21:26;4.77;;;1.13;;
4452;SDS011;2239;48.152;11.584;2023-08-06T04:23:51;2.00;;;1.23;;
4452;SDS011;2239;48.152;11.584;2023-08-06T04:26:17;1.83;;;1.20;;
4452;SDS011;2239;48.152;11.584;2023-08-06T04:28:42;2.63;;;1.40;;
4452;SDS011;2239;48.152;11.584;2023-08-06T04:31:08;2.60;;;1.07;;
4452;SDS011;2239;48.152;11.584;2023-08-06T04:33:33;1.93;;;1.20;;
4452;SDS011;2239;48.152;11.584;2023-08-06T04:35:59;4.30;;;1.43;;
4452;SDS011;2239;48.152;11.584;2023-08-06T04:38:25;1.10;;;1.00;;
4452;SDS011;2239;48.152;11.584;2023-08-06T04:40:50;1.60;;;1.10;;
4452;SDS011;2239;48.152;11.584;2023-08-06T04:43:16;1.90;;;1.43;;
4452;SDS011;2239;48.152;11.584;2023-08-06T04:45:46;1.33;;;1.23;;
4452;SDS011;2239;48.152;11.584;2023-08-06T04:48:15;2.10;;;1.13;;
4452;SDS011;2239;48.152;11.584;2023-08-06T04:50:44;1.73;;;1.10;;
4452;SDS011;2239;48.152;11.584;2023-08-06T04:53:14;1.93;;;1.10;;
4452;SDS011;2239;48.152;11.584;2023-08-06T04:55:40;2.93;;;1.40;;
4452;SDS011;2239;48.152;11.584;2023-08-06T04:58:05;1.80;;;1.27;;
4452;SDS011;2239;48.152;11.584;2023-08-06T05:00:31;2.30;;;1.40;;
4452;SDS011;2239;48.152;11.584;2023-08-06T05:02:58;3.13;;;1.17;;
4452;SDS011;2239;48.152;11.584;2023-08-06T05:05:25;2.80;;;1.30;;
4452;SDS011;2239;48.152;11.584;2023-08-06T05:07:50;2.63;;;1.40;;
4452;SDS011;2239;48.152;11.584;2023-08-06T05:10:16;1.70;;;1.03;;
4452;SDS011;2239;48.152;11.584;2023-08-06T05:12:41;1.87;;;1.30;;
4452;SDS011;2239;48.152;11.584;2023-08-06T05:15:07;1.70;;;1.40;;
4452;SDS011;2239;48.152;11.584;2023-08-06T05:17:33;3.50;;;1.40;;
4452;SDS011;2239;48.152;11.584;2023-08-06T05:19:59;1.70;;;1.13;;
4452;SDS011;2239;48.152;11.584;2023-08-06T05:22:24;1.40;;;1.00;;
4452;SDS011;2239;48.152;11.584;2023-08-06T05:24:50;2.00;;;1.00;;
4452;SDS011;2239;48.152;11.584;2023-08-06T05:27:16;2.07;;;1.10;;
4452;SDS011;2239;48.152;11.584;2023-08-06T05:29:43;1.77;;;1.17;;
4452;SDS011;2239;48.152;11.584;2023-08-06T05:32:09;1.70;;;1.00;;
4452;SDS011;2239;48.152;11.584;2023-08-06T05:34:35;2.00;;;1.30;;
4452;SDS011;2239;48.152;11.584;2023-08-06T05:37:01;2.10;;;1.37;;
4452;SDS011;2239;48.152;11.584;2023-08-06T05:39:26;1.47;;;1.07;;
4452;SDS011;2239;48.152;11.584;2023-08-06T05:41:52;1.27;;;1.00;;
4452;SDS011;2239;48.152;11.584;2023-08-06T05:44:17;1.67;;;1.00;;
4452;SDS011;2239;48.152;11.584;2023-08-06T05:46:43;1.83;;;1.00;;
4452;SDS011;2239;48.152;11.584;2023-08-06T05:49:08;1.50;;;1.00;;
4452;SDS011;2239;48.152;11.584;2023-08-06T05:51:34;1.70;;;1.00;;
4452;SDS011;2239;48.152;11.584;2023-08-06T05:53:59;2.43;;;1.03;;
4452;SDS011;2239;48.152;11.584;2023-08-06T05:56:25;0.83;;;0.80;;
4452;SDS011;2239;48.152;11.584;2023-08-06T05:58:50;2.07;;;1.30;;
4452;SDS011;2239;48.152;11.584;2023-08-06T06:01:18;1.40;;;1.13;;
4452;SDS011;2239;48.152;11.584;2023-08-06T06:03:43;2.43;;;1.30;;
4452;SDS011;2239;48.152;11.584;2023-08-06T06:06:09;1.70;;;1.20;;
4452;SDS011;2239;48.152;11.584;2023-08-06T06:08:34;1.53;;;1.20;;
4452;SDS011;2239;48.152;11.584;2023-08-06T06:11:00;2.10;;;1.00;;
4452;SDS011;2239;48.152;11.584;2023-08-06T06:13:25;1.50;;;1.17;;
4452;SDS011;2239;48.152;11.584;2023-08-06T06:15:53;2.40;;;1.20;;
4452;SDS011;2239;48.152;11.584;2023-08-06T06:18:20;2.37;;;1.10;;
4452;SDS011;2239;48.152;11.584;2023-08-06T06:20:45;1.33;;;0.80;;
4452;SDS011;2239;48.152;11.584;2023-08-06T06:23:11;1.03;;;0.93;;
4452;SDS011;2239;48.152;11.584;2023-08-06T06:25:36;1.23;;;0.97;;
4452;SDS011;2239;48.152;11.584;2023-08-06T06:28:06;1.20;;;0.80;;
4452;SDS011;2239;48.152;11.584;2023-08-06T06:30:32;0.87;;;0.83;;
4452;SDS011;2239;48.152;11.584;2023-08-06T06:32:57;2.23;;;1.10;;
4452;SDS011;2239;48.152;11.584;2023-08-06T06:35:23;3.33;;;1.20;;
4452;SDS011;2239;48.152;11.584;2023-08-06T06:37:48;1.10;;;0.87;;
4452;SDS011;2239;48.152;11.584;2023-08-06T06:40:14;1.20;;;0.80;;
4452;SDS011;2239;48.152;11.584;2023-08-06T06:42:40;0.97;;;0.70;;
4452;SDS011;2239;48.152;11.584;2023-08-06T06:45:05;2.30;;;0.90;;
4452;SDS011;2239;48.152;11.584;2023-08-06T06:47:32;1.07;;;0.80;;
4452;SDS011;2239;48.152;11.584;2023-08-06T06:49:57;1.60;;;1.10;;
4452;SDS011;2239;48.152;11.584;2023-08-06T06:52:23;3.00;;;1.20;;
4452;SDS011;2239;48.152;11.584;2023-08-06T06:54:48;0.77;;;0.70;;
4452;SDS011;2239;48.152;11.584;2023-08-06T06:57:14;1.00;;;0.70;;
4452;SDS011;2239;48.152;11.584;2023-08-06T06:59:39;1.27;;;0.87;;
4452;SDS011;2239;48.152;11.584;2023-08-06T07:02:05;2.10;;;1.10;;
4452;SDS011;2239;48.152;11.584;2023-08-06T07:04:31;0.80;;;0.57;;
4452;SDS011;2239;48.152;11.584;2023-08-06T07:06:56;1.00;;;0.87;;
4452;SDS011;2239;48.152;11.584;2023-08-06T07:09:22;1.07;;;0.80;;
4452;SDS011;2239;48.152;11.584;2023-08-06T07:11:47;0.80;;;0.67;;
4452;SDS011;2239;48.152;11.584;2023-08-06T07:14:13;1.57;;;0.80;;
4452;SDS011;2239;48.152;11.584;2023-08-06T07:16:39;1.23;;;0.80;;
4452;SDS011;2239;48.152;11.584;2023-08-06T07:19:05;0.60;;;0.50;;
4452;SDS011;2239;48.152;11.584;2023-08-06T07:21:30;1.43;;;0.60;;
4452;SDS011;2239;48.152;11.584;2023-08-06T07:23:57;0.80;;;0.70;;
4452;SDS011;2239;48.152;11.584;2023-08-06T07:26:24;1.43;;;0.63;;
4452;SDS011;2239;48.152;11.584;2023-08-06T07:28:49;0.93;;;0.50;;
4452;SDS011;2239;48.152;11.584;2023-08-06T07:31:15;2.10;;;0.93;;
4452;SDS011;2239;48.152;11.584;2023-08-06T07:33:40;1.00;;;0.60;;
4452;SDS011;2239;48.152;11.584;2023-08-06T07:36:13;2.33;;;0.70;;
4452;SDS011;2239;48.152;11.584;2023-08-06T07:38:39;0.73;;;0.60;;
4452;SDS011;2239;48.152;11.584;2023-08-06T07:41:05;2.03;;;0.97;;
4452;SDS011;2239;48.152;11.584;2023-08-06T07:43:31;0.97;;;0.60;;
4452;SDS011;2239;48.152;11.584;2023-08-06T07:45:58;0.50;;;0.50;;
4452;SDS011;2239;48.152;11.584;2023-08-06T07:48:25;0.80;;;0.50;;
4452;SDS011;2239;48.152;11.584;2023-08-06T07:50:51;0.80;;;0.70;;
4452;SDS011;2239;48.152;11.584;2023-08-06T07:53:19;0.83;;;0.70;;
4452;SDS011;2239;48.152;11.584;2023-08-06T07:55:52;0.70;;;0.53;;
4452;SDS011;2239;48.152;11.584;2023-08-06T07:58:19;0.77;;;0.60;;
4452;SDS011;2239;48.152;11.584;2023-08-06T08:00:45;1.87;;;0.90;;
4452;SDS011;2239;48.152;11.584;2023-08-06T08:03:11;0.80;;;0.70;;
4452;SDS011;2239;48.152;11.584;2023-08-06T08:05:41;1.27;;;0.57;;
4452;SDS011;2239;48.152;11.584;2023-08-06T08:08:07;1.00;;;0.60;;
4452;SDS011;2239;48.152;11.584;2023-08-06T08:10:33;0.90;;;0.70;;
4452;SDS011;2239;48.152;11.584;2023-08-06T08:13:00;0.70;;;0.60;;
4452;SDS011;2239;48.152;11.584;2023-08-06T08:15:29;1.37;;;0.60;;
4452;SDS011;2239;48.152;11.584;2023-08-06T08:17:55;0.73;;;0.60;;
4452;SDS011;2239;48.152;11.584;2023-08-06T08:20:21;0.80;;;0.67;;
4452;SDS011;2239;48.152;11.584;2023-08-06T08:22:47;1.63;;;0.57;;
4452;SDS011;2239;48.152;11.584;2023-08-06T08:25:12;0.80;;;0.50;;
4452;SDS011;2239;48.152;11.584;2023-08-06T08:27:38;1.03;;;0.60;;
4452;SDS011;2239;48.152;11.584;2023-08-06T08:30:04;1.10;;;0.60;;
4452;SDS011;2239;48.152;11.584;2023-08-06T08:32:30;0.70;;;0.67;;
4452;SDS011;2239;48.152;11.584;2023-08-06T08:34:56;1.00;;;0.60;;
4452;SDS011;2239;48.152;11.584;2023-08-06T08:37:22;0.70;;;0.50;;
4452;SDS011;2239;48.152;11.584;2023-08-06T08:39:48;0.60;;;0.50;;
4452;SDS011;2239;48.152;11.584;2023-08-06T08:42:14;0.60;;;0.40;;
4452;SDS011;2239;48.152;11.584;2023-08-06T08:44:40;0.83;;;0.60;;
4452;SDS011;2239;48.152;11.584;2023-08-06T08:47:07;1.17;;;0.50;;
4452;SDS011;2239;48.152;11.584;2023-08-06T08:49:34;0.90;;;0.40;;
4452;SDS011;2239;48.152;11.584;2023-08-06T08:52:01;0.90;;;0.60;;
4452;SDS011;2239;48.152;11.584;2023-08-06T08:54:28;0.70;;;0.40;;
4452;SDS011;2239;48.152;11.584;2023-08-06T08:56:56;0.60;;;0.40;;
4452;SDS011;2239;48.152;11.584;2023-08-06T08:59:22;0.87;;;0.43;;
4452;SDS011;2239;48.152;11.584;2023-08-06T09:01:48;0.70;;;0.50;;
4452;SDS011;2239;48.152;11.584;2023-08-06T09:04:17;0.70;;;0.50;;
4452;SDS011;2239;48.152;11.584;2023-08-06T09:06:43;0.57;;;0.40;;
4452;SDS011;2239;48.152;11.584;2023-08-06T09:09:16;0.77;;;0.50;;
4452;SDS011;2239;48.152;11.584;2023-08-06T09:11:50;0.60;;;0.50;;
4452;SDS011;2239;48.152;11.584;2023-08-06T09:14:16;0.50;;;0.40;;
4452;SDS011;2239;48.152;11.584;2023-08-06T09:16:43;0.53;;;0.40;;
4452;SDS011;2239;48.152;11.584;2023-08-06T09:19:12;0.50;;;0.50;;
4452;SDS011;2239;48.152;11.584;2023-08-06T09:21:40;0.70;;;0.43;;
4452;SDS011;2239;48.152;11.584;2023-08-06T09:24:07;0.63;;;0.40;;
4452;SDS011;2239;48.152;11.584;2023-08-06T09:26:34;0.50;;;0.40;;
4452;SDS011;2239;48.152;11.584;2023-08-06T09:29:00;2.50;;;0.50;;
4452;SDS011;2239;48.152;11.584;2023-08-06T09:31:32;0.80;;;0.40;;
4452;SDS011;2239;48.152;11.584;2023-08-06T09:33:59;0.70;;;0.40;;
4452;SDS011;2239;48.152;11.584;2023-08-06T09:36:26;0.60;;;0.40;;
4452;SDS011;2239;48.152;11.584;2023-08-06T09:38:52;0.80;;;0.60;;
4452;SDS011;2239;48.152;11.584;2023-08-06T09:41:27;0.50;;;0.40;;
4452;SDS011;2239;48.152;11.584;2023-08-06T09:43:53;0.50;;;0.40;;
4452;SDS011;2239;48.152;11.584;2023-08-06T09:46:19;0.63;;;0.43;;
4452;SDS011;2239;48.152;11.584;2023-08-06T09:48:46;1.10;;;0.40;;
4452;SDS011;2239;48.152;11.584;2023-08-06T09:51:11;0.93;;;0.50;;
4452;SDS011;2239;48.152;11.584;2023-08-06T09:53:38;0.50;;;0.40;;
4452;SDS011;2239;48.152;11.584;2023-08-06T09:56:05;2.17;;;0.60;;
4452;SDS011;2239;48.152;11.584;2023-08-06T09:58:31;0.50;;;0.40;;
4452;SDS011;2239;48.152;11.584;2023-08-06T10:00:58;0.50;;;0.37;;
4452;SDS011;2239;48.152;11.584;2023-08-06T10:03:24;0.50;;;0.40;;
4452;SDS011;2239;48.152;11.584;2023-08-06T10:05:50;0.60;;;0.40;;
4452;SDS011;2239;48.152;11.584;2023-08-06T10:08:16;0.50;;;0.30;;
4452;SDS011;2239;48.152;11.584;2023-08-06T10:10:42;0.60;;;0.40;;
4452;SDS011;2239;48.152;11.584;2023-08-06T10:13:08;0.70;;;0.40;;
4452;SDS011;2239;48.152;11.584;2023-08-06T10:15:35;0.50;;;0.40;;
4452;SDS011;2239;48.152;11.584;2023-08-06T10:18:03;0.50;;;0.40;;
4452;SDS011;2239;48.152;11.584;2023-08-06T10:20:36;0.60;;;0.40;;
4452;SDS011;2239;48.152;11.584;2023-08-06T10:23:02;1.57;;;0.50;;
4452;SDS011;2239;48.152;11.584;2023-08-06T10:25:32;0.80;;;0.40;;
4452;SDS011;2239;48.152;11.584;2023-08-06T10:27:59;0.50;;;0.40;;
4452;SDS011;2239;48.152;11.584;2023-08-06T10:32:54;0.50;;;0.40;;
4452;SDS011;2239;48.152;11.584;2023-08-06T10:35:34;0.50;;;0.40;;
4452;SDS011;2239;48.152;11.584;2023-08-06T10:38:10;0.60;;;0.50;;
4452;SDS011;2239;48.152;11.584;2023-08-06T10:40:37;0.50;;;0.40;;
4452;SDS011;2239;48.152;11.584;2023-08-06T10:43:05;0.50;;;0.40;;
4452;SDS011;2239;48.152;11.584;2023-08-06T10:45:35;0.50;;;0.40;;
4452;SDS011;2239;48.152;11.584;2023-08-06T10:48:02;0.50;;;0.40;;
4452;SDS011;2239;48.152;11.584;2023-08-06T10:50:28;0.57;;;0.40;;
4452;SDS011;2239;48.152;11.584;2023-08-06T10:52:54;0.50;;;0.40;;
4452;SDS011;2239;48.152;11.584;2023-08-06T10:55:24;0.50;;;0.40;;
4452;SDS011;2239;48.152;11.584;2023-08-06T10:57:50;1.07;;;0.50;;
4452;SDS011;2239;48.152;11.584;2023-08-06T11:00:17;1.17;;;0.60;;
4452;SDS011;2239;48.152;11.584;2023-08-06T11:02:42;0.50;;;0.30;;
4452;SDS011;2239;48.152;11.584;2023-08-06T11:05:09;0.60;;;0.40;;
4452;SDS011;2239;48.152;11.584;2023-08-06T11:07:36;0.50;;;0.40;;
4452;SDS011;2239;48.152;11.584;2023-08-06T11:10:05;0.50;;;0.40;;
4452;SDS011;2239;48.152;11.584;2023-08-06T11:12:33;1.00;;;0.50;;
4452;SDS011;2239;48.152;11.584;2023-08-06T11:14:59;0.60;;;0.40;;
4452;SDS011;2239;48.152;11.584;2023-08-06T11:17:27;0.50;;;0.40;;
4452;SDS011;2239;48.152;11.584;2023-08-06T11:19:54;0.50;;;0.40;;
4452;SDS011;2239;48.152;11.584;2023-08-06T11:22:20;0.50;;;0.40;;
4452;SDS011;2239;48.152;11.584;2023-08-06T11:24:46;0.60;;;0.40;;
4452;SDS011;2239;48.152;11.584;2023-08-06T11:27:13;0.60;;;0.40;;
4452;SDS011;2239;48.152;11.584;2023-08-06T11:29:39;0.70;;;0.47;;
4452;SDS011;2239;48.152;11.584;2023-08-06T11:32:09;0.60;;;0.40;;
4452;SDS011;2239;48.152;11.584;2023-08-06T11:34:35;0.50;;;0.30;;
4452;SDS011;2239;48.152;11.584;2023-08-06T11:37:05;0.50;;;0.40;;
4452;SDS011;2239;48.152;11.584;2023-08-06T11:39:35;0.50;;;0.40;;
4452;SDS011;2239;48.152;11.584;2023-08-06T11:42:05;0.70;;;0.40;;
4452;SDS011;2239;48.152;11.584;2023-08-06T11:44:32;1.43;;;0.40;;
4452;SDS011;2239;48.152;11.584;2023-08-06T11:47:00;0.60;;;0.40;;
4452;SDS011;2239;48.152;11.584;2023-08-06T11:49:40;0.60;;;0.40;;
4452;SDS011;2239;48.152;11.584;2023-08-06T11:52:14;0.90;;;0.50;;
4452;SDS011;2239;48.152;11.584;2023-08-06T11:55:00;0.50;;;0.40;;
4452;SDS011;2239;48.152;11.584;2023-08-06T11:57:31;0.50;;;0.40;;
4452;SDS011;2239;48.152;11.584;2023-08-06T12:00:00;2.03;;;0.50;;
4452;SDS011;2239;48.152;11.584;2023-08-06T12:02:30;0.50;;;0.40;;
4452;SDS011;2239;48.152;11.584;2023-08-06T12:07:41;0.50;;;0.40;;
4452;SDS011;2239;48.152;11.584;2023-08-06T12:10:09;0.50;;;0.40;;
4452;SDS011;2239;48.152;11.584;2023-08-06T12:12:35;0.50;;;0.40;;
4452;SDS011;2239;48.152;11.584;2023-08-06T12:15:02;0.50;;;0.40;;
4452;SDS011;2239;48.152;11.584;2023-08-06T12:17:28;1.17;;;0.47;;
4452;SDS011;2239;48.152;11.584;2023-08-06T12:19:54;0.50;;;0.33;;
4452;SDS011;2239;48.152;11.584;2023-08-06T12:22:19;0.57;;;0.40;;
4452;SDS011;2239;48.152;11.584;2023-08-06T12:24:45;0.50;;;0.30;;
4452;SDS011;2239;48.152;11.584;2023-08-06T12:27:12;0.53;;;0.40;;
4452;SDS011;2239;48.152;11.584;2023-08-06T12:29:41;0.60;;;0.50;;
4452;SDS011;2239;48.152;11.584;2023-08-06T12:32:08;0.70;;;0.40;;
4452;SDS011;2239;48.152;11.584;2023-08-06T12:34:34;0.60;;;0.40;;
4452;SDS011;2239;48.152;11.584;2023-08-06T12:36:59;0.57;;;0.40;;
4452;SDS011;2239;48.152;11.584;2023-08-06T12:39:25;3.27;;;0.40;;
4452;SDS011;2239;48.152;11.584;2023-08-06T12:41:53;0.50;;;0.40;;
4452;SDS011;2239;48.152;11.584;2023-08-06T12:44:19;0.50;;;0.30;;
4452;SDS011;2239;48.152;11.584;2023-08-06T12:46:45;0.50;;;0.40;;
4452;SDS011;2239;48.152;11.584;2023-08-06T12:49:10;0.60;;;0.50;;
4452;SDS011;2239;48.152;11.584;2023-08-06T12:51:36;0.57;;;0.43;;
4452;SDS011;2239;48.152;11.584;2023-08-06T12:54:01;0.60;;;0.50;;
4452;SDS011;2239;48.152;11.584;2023-08-06T12:56:27;0.70;;;0.40;;
4452;SDS011;2239;48.152;11.584;2023-08-06T12:58:54;0.70;;;0.50;;
4452;SDS011;2239;48.152;11.584;2023-08-06T13:01:19;0.60;;;0.47;;
4452;SDS011;2239;48.152;11.584;2023-08-06T13:03:45;0.60;;;0.50;;
4452;SDS011;2239;48.152;11.584;2023-08-06T13:06:10;0.60;;;0.40;;
4452;SDS011;2239;48.152;11.584;2023-08-06T13:08:37;0.60;;;0.40;;
4452;SDS011;2239;48.152;11.584;2023-08-06T13:11:02;0.50;;;0.40;;
4452;SDS011;2239;48.152;11.584;2023-08-06T13:13:28;0.50;;;0.40;;
4452;SDS011;2239;48.152;11.584;2023-08-06T13:15:54;2.87;;;0.60;;
4452;SDS011;2239;48.152;11.584;2023-08-06T13:18:19;0.87;;;0.47;;
4452;SDS011;2239;48.152;11.584;2023-08-06T13:20:45;0.57;;;0.40;;
4452;SDS011;2239;48.152;11.584;2023-08-06T13:23:12;0.50;;;0.40;;
4452;SDS011;2239;48.152;11.584;2023-08-06T13:25:40;0.60;;;0.40;;
4452;SDS011;2239;48.152;11.584;2023-08-06T13:28:06;0.63;;;0.40;;
4452;SDS011;2239;48.152;11.584;2023-08-06T13:30:31;0.50;;;0.30;;
4452;SDS011;2239;48.152;11.584;2023-08-06T13:32:57;0.60;;;0.40;;
4452;SDS011;2239;48.152;11.584;2023-08-06T13:35:23;0.50;;;0.40;;
4452;SDS011;2239;48.152;11.584;2023-08-06T13:37:48;0.60;;;0.40;;
4452;SDS011;2239;48.152;11.584;2023-08-06T13:40:14;0.60;;;0.47;;
4452;SDS011;2239;48.152;11.584;2023-08-06T13:42:40;0.50;;;0.40;;
4452;SDS011;2239;48.152;11.584;2023-08-06T13:45:06;0.50;;;0.40;;
4452;SDS011;2239;48.152;11.584;2023-08-06T13:47:32;0.50;;;0.40;;
4452;SDS011;2239;48.152;11.584;2023-08-06T13:49:57;0.50;;;0.37;;
4452;SDS011;2239;48.152;11.584;2023-08-06T13:52:24;0.60;;;0.40;;
4452;SDS011;2239;48.152;11.584;2023-08-06T13:54:50;0.90;;;0.50;;
4452;SDS011;2239;48.152;11.584;2023-08-06T13:57:16;0.70;;;0.40;;
4452;SDS011;2239;48.152;11.584;2023-08-06T13:59:42;0.50;;;0.40;;
4452;SDS011;2239;48.152;11.584;2023-08-06T14:02:08;0.70;;;0.50;;
4452;SDS011;2239;48.152;11.584;2023-08-06T14:04:34;0.90;;;0.70;;
4452;SDS011;2239;48.152;11.584;2023-08-06T14:07:00;3.27;;;0.50;;
4452;SDS011;2239;48.152;11.584;2023-08-06T14:09:25;0.50;;;0.50;;
4452;SDS011;2239;48.152;11.584;2023-08-06T14:11:51;0.53;;;0.40;;
4452;SDS011;2239;48.152;11.584;2023-08-06T14:14:16;0.50;;;0.40;;
4452;SDS011;2239;48.152;11.584;2023-08-06T14:16:42;1.00;;;0.53;;
4452;SDS011;2239;48.152;11.584;2023-08-06T14:19:07;1.17;;;0.60;;
4452;SDS011;2239;48.152;11.584;2023-08-06T14:21:33;0.60;;;0.40;;
4452;SDS011;2239;48.152;11.584;2023-08-06T14:23:58;0.70;;;0.47;;
4452;SDS011;2239;48.152;11.584;2023-08-06T14:26:24;0.50;;;0.40;;
4452;SDS011;2239;48.152;11.584;2023-08-06T14:28:50;0.60;;;0.50;;
4452;SDS011;2239;48.152;11.584;2023-08-06T14:31:19;0.53;;;0.50;;
4452;SDS011;2239;48.152;11.584;2023-08-06T14:33:45;0.90;;;0.50;;
4452;SDS011;2239;48.152;11.584;2023-08-06T14:36:11;0.50;;;0.40;;
4452;SDS011;2239;48.152;11.584;2023-08-06T14:38:36;0.50;;;0.40;;
4452;SDS011;2239;48.152;11.584;2023-08-06T14:41:02;0.60;;;0.40;;
4452;SDS011;2239;48.152;11.584;2023-08-06T14:43:27;0.87;;;0.50;;
4452;SDS011;2239;48.152;11.584;2023-08-06T14:45:53;0.60;;;0.40;;
4452;SDS011;2239;48.152;11.584;2023-08-06T14:48:18;0.50;;;0.40;;
4452;SDS011;2239;48.152;11.584;2023-08-06T14:50:44;0.60;;;0.40;;
4452;SDS011;2239;48.152;11.584;2023-08-06T14:53:10;0.70;;;0.60;;
4452;SDS011;2239;48.152;11.584;2023-08-06T14:55:36;0.50;;;0.40;;
4452;SDS011;2239;48.152;11.584;2023-08-06T14:58:02;0.60;;;0.40;;
4452;SDS011;2239;48.152;11.584;2023-08-06T15:00:27;0.50;;;0.40;;
4452;SDS011;2239;48.152;11.584;2023-08-06T15:02:53;0.50;;;0.40;;
4452;SDS011;2239;48.152;11.584;2023-08-06T15:05:19;0.60;;;0.40;;
4452;SDS011;2239;48.152;11.584;2023-08-06T15:07:44;0.50;;;0.30;;